Airport View

Enter AWOS ICAO identifier for current METAR.

ex. KFNL

KF00 251015Z AUTO 10007KT 10SM OVC009 11/10 A2998 RMK AO2 T01060096

25 Oct 2020 10:36

Frequency: 118.05

Phone: 903-583-2082

Other Area AWOS: KDUA - KGYI - KGVT - KTKI

TAF AMD KDAL 250905Z 2509/2606 12005KT P6SM SCT035 BKN250 FM251100 16011KT P6SM BKN023 TEMPO 2511/2514 BKN018 FM251600 13010KT P6SM BKN040 FM260000 09009KT P6SM BKN018 FM260200 05011KT 4SM -DZ BR OVC008